New Freeport, Pennsylvania
Current Conditions -  °F | °C
As of 5:15 AM on Thursday 29 Jan 2015 (Local Time) from KAFJ Reporting Station
Broken Clouds Broken Clouds  
Wind Chill: 13°   Ceiling: 10000
Heat Index: 19°   Visibility: 10mi
Dew Point: 16°   Wind: 5mph
Humidity: 86%   Direction: 90°E
Pressure: 30.12"   Gusts: NA
Location:  39.76°N, 80.43°W
Report Text: KAFJ 291015Z AUTO 09004KT 10SM BKN100 BKN120 M07/M09 A3012 RMK AO1
Loading
Personal Weather Stations






























Interactive Weather Map New forecast layout! Learn more

10-Day Weather Forecast

Advertisements
Track Severe Weather on mobile